Terminal Aerodrome Forecast
Issued by NWS North Platte, NE

Home | Current Version | Previous Version | Graphics & Text | Print | Product List | Glossary On
Versions: 1 2 3 4 5 6 7 8 9 10 11 12 13 14 15 16
000
FTUS43 KLBF 312300
TAFVTN
TAF
KVTN 312320Z 0100/0124 16014KT P6SM FEW050
     FM010100 13011KT P6SM SCT070
     FM011100 16007KT P6SM SCT015
      TEMPO 0111/0115 P6SM BKN015
     FM011600 17014G20KT P6SM SCT040=

USA.gov is the U.S. government's official web portal to all federal, state and local government web resources and services.